Time;durP1;ratioP1;P1;durP2;ratioP2;P2;SDS_P1;SDS_P2;PMS_P1;PMS_P2;Temp;Humidity;BMP_temperature;BMP_pressure;BME280_temperature;BME280_humidity;BME280_pressure;Samples;Min_cycle;Max_cycle;Signal;HPM_P1;HPM_P2
2022/03/17 00:00:34;;;;;;;99.45;36.15;;;;;;;1.84;100.00;96098.16;5054417;28;20033;-77
2022/03/17 00:03:08;;;;;;;97.65;36.85;;;;;;;1.78;100.00;96093.78;5058226;28;20045;-77
2022/03/17 00:05:33;;;;;;;97.18;36.28;;;;;;;1.83;100.00;96096.56;5070637;28;20119;-77
2022/03/17 00:07:59;;;;;;;94.88;36.42;;;;;;;1.66;100.00;96090.16;5066405;28;20033;-77
2022/03/17 00:10:24;;;;;;;103.10;37.22;;;;;;;1.59;100.00;96104.94;5061789;28;20154;-77
2022/03/17 00:12:50;;;;;;;105.13;37.95;;;;;;;1.55;100.00;96100.16;5055341;28;20037;-77
2022/03/17 00:15:16;;;;;;;111.25;37.42;;;;;;;1.60;100.00;96096.94;5052157;28;20047;-77
2022/03/17 00:17:42;;;;;;;96.03;35.92;;;;;;;1.62;100.00;96099.34;5052790;28;20051;-77
2022/03/17 00:20:10;;;;;;;105.28;38.17;;;;;;;1.63;100.00;96100.94;5061652;28;20785;-77
2022/03/17 00:22:37;;;;;;;101.22;37.28;;;;;;;1.65;100.00;96093.75;5052750;28;20064;-77
2022/03/17 00:25:05;;;;;;;101.90;37.55;;;;;;;1.47;100.00;96096.94;5068445;28;20049;-77
2022/03/17 00:27:31;;;;;;;101.95;38.35;;;;;;;1.32;100.00;96084.94;5053923;28;20045;-77
2022/03/17 00:29:57;;;;;;;93.13;36.47;;;;;;;1.36;100.00;96085.34;5064253;28;20036;-78
2022/03/17 00:32:23;;;;;;;99.40;36.90;;;;;;;1.39;100.00;96100.50;5061086;28;20048;-77
2022/03/17 00:37:34;;;;;;;105.38;36.72;;;;;;;1.44;100.00;96092.94;5055621;28;20048;-77
2022/03/17 00:40:00;;;;;;;103.28;38.10;;;;;;;1.38;100.00;96093.72;5069629;28;20036;-77
2022/03/17 00:42:27;;;;;;;103.15;36.78;;;;;;;1.39;100.00;96095.31;5053337;28;20044;-77
2022/03/17 00:44:54;;;;;;;101.45;37.47;;;;;;;1.40;100.00;96091.72;5059868;28;20065;-77
2022/03/17 00:47:21;;;;;;;107.05;38.50;;;;;;;1.35;100.00;96089.72;5060682;28;20418;-78
2022/03/17 00:49:47;;;;;;;112.28;39.58;;;;;;;1.38;100.00;96088.53;5055014;28;20041;-78
2022/03/17 00:52:14;;;;;;;104.68;38.05;;;;;;;1.40;100.00;96081.34;5055918;28;20040;-78
2022/03/17 00:54:41;;;;;;;111.75;39.03;;;;;;;1.28;100.00;96082.91;5061564;28;20570;-78
2022/03/17 00:57:08;;;;;;;100.45;35.55;;;;;;;1.40;100.00;96078.75;5055184;28;20159;-78
2022/03/17 00:59:36;;;;;;;98.35;37.72;;;;;;;1.40;100.00;96073.56;5058449;28;20041;-78
2022/03/17 01:02:02;;;;;;;98.82;37.75;;;;;;;1.36;100.00;96074.97;5060827;28;20037;-78
2022/03/17 01:04:28;;;;;;;95.95;35.13;;;;;;;1.38;100.00;96078.16;5061453;28;20045;-77
2022/03/17 01:06:54;;;;;;;99.32;36.15;;;;;;;1.36;100.00;96077.56;5060856;28;20041;-77
2022/03/17 01:09:19;;;;;;;104.57;37.67;;;;;;;1.35;100.00;96086.31;5056433;28;20068;-78
2022/03/17 01:11:46;;;;;;;103.72;36.63;;;;;;;1.43;100.00;96080.97;5059616;28;20063;-78
2022/03/17 01:14:13;;;;;;;100.90;35.70;;;;;;;1.53;100.00;96081.38;5071849;28;20052;-78
2022/03/17 01:16:42;;;;;;;105.95;38.17;;;;;;;1.40;100.00;96073.56;5069918;28;20036;-78
2022/03/17 01:19:08;;;;;;;111.47;38.83;;;;;;;1.31;100.00;96079.94;5069750;28;20037;-78
2022/03/17 01:21:34;;;;;;;101.20;37.90;;;;;;;1.18;100.00;96078.91;5055855;28;20563;-77
2022/03/17 01:24:00;;;;;;;101.78;37.58;;;;;;;1.26;100.00;96069.34;5057194;28;20410;-78
2022/03/17 01:26:26;;;;;;;106.43;38.17;;;;;;;1.38;100.00;96060.03;5057577;28;20041;-78
2022/03/17 01:28:52;;;;;;;94.75;37.10;;;;;;;1.41;100.00;96062.22;5051695;28;20102;-77
2022/03/17 01:31:20;;;;;;;101.75;37.42;;;;;;;1.42;100.00;96053.41;5058667;28;20036;-77
2022/03/17 01:33:45;;;;;;;102.75;35.60;;;;;;;1.36;100.00;96062.00;5064867;28;20491;-77
2022/03/17 01:36:11;;;;;;;106.32;37.75;;;;;;;1.45;100.00;96057.41;5060065;28;20060;-77
2022/03/17 01:38:37;;;;;;;94.72;35.92;;;;;;;1.53;100.00;96050.25;5065281;28;20779;-78
2022/03/17 01:41:02;;;;;;;105.72;38.28;;;;;;;1.55;100.00;96053.44;5050700;28;20692;-77
2022/03/17 01:43:28;;;;;;;105.20;37.55;;;;;;;1.61;100.00;96048.44;5051774;28;20033;-77
2022/03/17 01:45:53;;;;;;;103.72;36.78;;;;;;;1.59;100.00;96058.22;5056053;28;20151;-77
2022/03/17 01:48:21;;;;;;;104.70;36.85;;;;;;;1.49;100.00;96051.63;5050212;28;20078;-77
2022/03/17 01:50:49;;;;;;;98.70;37.15;;;;;;;1.59;100.00;96047.84;5060077;28;20048;-77
2022/03/17 01:53:15;;;;;;;100.97;37.33;;;;;;;1.53;100.00;96039.84;5069053;28;20045;-77
2022/03/17 01:55:40;;;;;;;110.45;37.38;;;;;;;1.53;100.00;96037.25;5060300;28;20461;-77
2022/03/17 01:58:06;;;;;;;91.35;33.95;;;;;;;1.62;100.00;96042.25;5053526;28;20567;-77
2022/03/17 02:00:33;;;;;;;100.68;36.10;;;;;;;1.68;100.00;96054.44;5059974;28;20040;-77
2022/03/17 02:02:59;;;;;;;95.07;35.17;;;;;;;1.71;100.00;96046.25;5064558;28;20044;-77
2022/03/17 02:05:24;;;;;;;98.43;35.47;;;;;;;1.75;100.00;96042.25;5064358;28;20150;-77
2022/03/17 02:07:53;;;;;;;94.50;35.78;;;;;;;1.65;100.00;96037.50;5062133;28;20045;-77
2022/03/17 02:10:21;;;;;;;93.53;36.15;;;;;;;1.76;100.00;96033.47;5056944;28;20037;-77
2022/03/17 02:15:32;;;;;;;96.78;35.67;;;;;;;1.79;100.00;96035.69;5056971;28;20048;-77
2022/03/17 02:18:02;;;;;;;98.63;36.67;;;;;;;1.84;100.00;96035.88;5057166;28;20047;-77
2022/03/17 02:20:28;;;;;;;92.63;34.80;;;;;;;1.86;100.00;96044.25;5049531;28;20090;-77
2022/03/17 02:25:33;;;;;;;81.90;34.47;;;;;;;1.92;100.00;96039.28;5049802;28;20040;-77
2022/03/17 02:25:41;;;;;;;84.68;34.15;;;;;;;1.87;100.00;96035.47;5055740;28;20060;-77
2022/03/17 02:28:08;;;;;;;94.05;34.70;;;;;;;1.74;100.00;96025.13;5067431;28;20273;-77
2022/03/17 02:30:36;;;;;;;86.47;34.60;;;;;;;1.69;100.00;96022.31;5051971;28;20037;-77
2022/03/17 02:33:10;;;;;;;93.57;34.83;;;;;;;1.78;100.00;96026.31;5065871;28;20067;-76
2022/03/17 02:35:39;;;;;;;88.75;34.45;;;;;;;1.96;100.00;96032.69;5064582;28;20036;-77
2022/03/17 02:38:06;;;;;;;93.20;34.40;;;;;;;2.02;100.00;96021.47;5060573;28;20090;-77
2022/03/17 02:40:33;;;;;;;84.63;35.03;;;;;;;1.92;100.00;96031.47;5057502;28;20112;-77
2022/03/17 02:42:59;;;;;;;95.25;34.22;;;;;;;1.90;100.00;96031.69;5049867;28;20037;-77
2022/03/17 02:45:26;;;;;;;84.78;34.63;;;;;;;1.92;100.00;96026.28;5052914;28;20490;-77
2022/03/17 02:47:51;;;;;;;90.32;35.00;;;;;;;1.82;100.00;96022.28;5064495;28;20044;-77
2022/03/17 02:50:18;;;;;;;91.40;33.60;;;;;;;1.80;100.00;96024.31;5052372;28;20452;-77
2022/03/17 02:52:43;;;;;;;95.72;35.13;;;;;;;2.00;100.00;96034.66;5068153;28;20094;-77
2022/03/17 02:55:11;;;;;;;87.45;34.63;;;;;;;2.16;100.00;96033.44;5063839;28;20510;-77
2022/03/17 02:57:39;;;;;;;95.03;34.53;;;;;;;2.05;100.00;96026.25;5049443;28;20037;-77
2022/03/17 03:00:07;;;;;;;89.40;35.20;;;;;;;1.97;100.00;96023.88;5049748;28;20076;-77
2022/03/17 03:02:33;;;;;;;82.97;34.38;;;;;;;1.92;100.00;96026.28;5058343;28;20175;-77
2022/03/17 03:04:58;;;;;;;93.60;34.33;;;;;;;1.84;100.00;96035.88;5049160;28;20041;-77
2022/03/17 03:07:24;;;;;;;91.13;36.30;;;;;;;1.85;100.00;96045.28;5059802;28;20052;-77
2022/03/17 03:09:51;;;;;;;92.90;35.78;;;;;;;1.88;100.00;96057.84;5066184;28;20064;-77
2022/03/17 03:12:17;;;;;;;96.88;35.65;;;;;;;1.94;100.00;96053.66;5049143;28;20047;-77
2022/03/17 03:14:42;;;;;;;89.82;34.30;;;;;;;1.92;100.00;96057.44;5061746;28;20040;-77
2022/03/17 03:17:08;;;;;;;86.32;34.22;;;;;;;1.89;100.00;96049.03;5067780;28;20040;-77
2022/03/17 03:19:34;;;;;;;89.38;35.38;;;;;;;1.76;100.00;96043.88;5048366;28;20113;-77
2022/03/17 03:21:59;;;;;;;90.20;34.10;;;;;;;1.65;100.00;96037.50;5060331;28;20040;-77
2022/03/17 03:24:25;;;;;;;91.80;34.92;;;;;;;1.66;100.00;96044.25;5050183;28;20051;-77
2022/03/17 03:26:52;;;;;;;96.35;36.08;;;;;;;1.82;100.00;96053.44;5048816;28;20040;-77
2022/03/17 03:29:23;;;;;;;88.00;33.97;;;;;;;1.94;100.00;96055.44;5053310;28;20476;-77
2022/03/17 03:31:54;;;;;;;90.05;33.92;;;;;;;1.95;100.00;96052.63;5058715;28;20070;-77
2022/03/17 03:34:20;;;;;;;97.03;34.53;;;;;;;1.84;100.00;96051.44;5048687;28;20449;-77
2022/03/17 03:39:31;;;;;;;86.78;33.38;;;;;;;1.88;100.00;96063.03;5062724;28;20402;-77
2022/03/17 03:41:57;;;;;;;87.45;34.47;;;;;;;1.98;100.00;96067.81;5063592;28;20058;-77
2022/03/17 03:44:23;;;;;;;84.65;32.22;;;;;;;2.00;100.00;96070.22;5062408;28;20059;-77
2022/03/17 03:46:49;;;;;;;84.70;33.88;;;;;;;1.87;100.00;96071.81;5053476;28;20039;-77
2022/03/17 03:49:14;;;;;;;90.53;34.50;;;;;;;1.67;100.00;96060.66;5065162;28;20037;-77
2022/03/17 03:51:40;;;;;;;95.32;35.65;;;;;;;1.52;100.00;96053.84;5050704;28;20037;-77
2022/03/17 03:54:18;;;;;;;96.18;35.00;;;;;;;1.51;100.00;96057.44;5055695;28;20040;-77
2022/03/17 03:56:48;;;;;;;90.28;34.63;;;;;;;1.31;100.00;96070.38;5048736;28;20044;-77
2022/03/17 04:01:44;;;;;;;93.70;35.17;;;;;;;1.36;100.00;96059.41;5049050;28;20067;-77
2022/03/17 04:04:13;;;;;;;80.80;33.30;;;;;;;1.46;100.00;96057.22;5049729;28;20122;-77
2022/03/17 04:06:44;;;;;;;96.05;35.75;;;;;;;1.39;100.00;96059.00;5047211;28;20029;-77
2022/03/17 04:09:10;;;;;;;89.65;34.90;;;;;;;1.43;100.00;96060.22;5062913;28;20087;-77
2022/03/17 04:11:35;;;;;;;86.85;34.20;;;;;;;1.35;100.00;96047.41;5056306;28;20498;-77
2022/03/17 04:14:01;;;;;;;87.68;33.65;;;;;;;1.37;100.00;96048.03;5056280;28;20040;-77
2022/03/17 04:16:26;;;;;;;95.97;35.70;;;;;;;1.42;100.00;96053.41;5048507;28;20041;-77
2022/03/17 04:18:52;;;;;;;88.22;34.03;;;;;;;1.43;100.00;96064.59;5048485;28;20533;-77
2022/03/17 04:21:17;;;;;;;89.65;35.53;;;;;;;1.45;100.00;96052.22;5052605;28;20118;-77
2022/03/17 04:23:43;;;;;;;96.15;35.92;;;;;;;1.39;100.00;96061.59;5047857;28;20029;-77
2022/03/17 04:26:09;;;;;;;93.07;34.60;;;;;;;1.40;100.00;96062.41;5048575;28;20193;-77
2022/03/17 04:28:34;;;;;;;93.50;36.15;;;;;;;1.48;100.00;96063.03;5047251;28;20502;-77
2022/03/17 04:31:00;;;;;;;86.82;34.03;;;;;;;1.49;100.00;96064.59;5048162;28;20033;-77
2022/03/17 04:33:25;;;;;;;92.38;34.83;;;;;;;1.21;100.00;96073.34;5053388;28;20521;-77
2022/03/17 04:35:51;;;;;;;97.40;36.60;;;;;;;1.20;100.00;96087.28;5056002;28;20033;-77
2022/03/17 04:38:16;;;;;;;92.93;34.55;;;;;;;1.37;100.00;96076.56;5067453;28;20113;-77
2022/03/17 04:40:46;;;;;;;98.05;37.35;;;;;;;1.42;100.00;96074.16;5061966;28;20071;-77
2022/03/17 04:43:12;;;;;;;96.72;36.22;;;;;;;1.38;100.00;96067.81;5068191;28;20036;-77
2022/03/17 04:45:38;;;;;;;102.60;37.30;;;;;;;1.37;100.00;96061.00;5061033;28;20033;-77
2022/03/17 04:48:04;;;;;;;86.25;34.95;;;;;;;1.51;100.00;96078.19;5051856;28;20044;-76
2022/03/17 04:50:30;;;;;;;95.28;36.90;;;;;;;1.65;100.00;96078.19;5051777;28;20087;-77
2022/03/17 04:55:39;;;;;;;98.57;36.45;;;;;;;1.79;100.00;96082.38;5059000;28;20037;-77
2022/03/17 04:58:06;;;;;;;98.00;35.25;;;;;;;1.81;100.00;96074.41;5071394;28;20051;-77
2022/03/17 05:00:32;;;;;;;97.95;34.72;;;;;;;1.88;100.00;96085.56;5063656;28;20062;-77
2022/03/17 05:02:57;;;;;;;91.53;36.15;;;;;;;1.94;100.00;96081.38;5060083;28;20526;-77
2022/03/17 05:05:23;;;;;;;90.65;34.55;;;;;;;1.89;100.00;96095.75;5051367;28;20542;-76
2022/03/17 05:07:48;;;;;;;100.18;36.92;;;;;;;1.85;100.00;96084.19;5051836;28;20662;-77
2022/03/17 05:10:14;;;;;;;100.20;36.85;;;;;;;1.79;100.00;96086.78;5066375;28;20584;-77
2022/03/17 05:12:39;;;;;;;97.32;37.13;;;;;;;1.80;100.00;96086.59;5062763;28;20043;-77
2022/03/17 05:15:05;;;;;;;99.65;37.78;;;;;;;1.84;100.00;96090.38;5058659;28;20077;-77
2022/03/17 05:17:33;;;;;;;98.45;36.42;;;;;;;1.95;100.00;96090.78;5061119;28;20036;-77
2022/03/17 05:19:59;;;;;;;94.68;35.67;;;;;;;1.97;100.00;96096.56;5063838;28;20116;-76
2022/03/17 05:22:25;;;;;;;93.43;35.67;;;;;;;1.93;100.00;96105.78;5052299;28;20041;-77
2022/03/17 05:24:51;;;;;;;92.70;36.42;;;;;;;1.87;100.00;96107.38;5051100;28;20505;-77
2022/03/17 05:27:17;;;;;;;109.07;38.00;;;;;;;1.86;100.00;96111.75;5049783;28;20045;-77
2022/03/17 05:29:43;;;;;;;85.15;34.72;;;;;;;1.98;100.00;96111.16;5052517;28;20052;-77
2022/03/17 05:32:09;;;;;;;102.28;36.50;;;;;;;1.89;100.00;96116.53;5060577;28;20037;-77
2022/03/17 05:34:34;;;;;;;99.35;37.15;;;;;;;1.94;100.00;96115.94;5061843;28;20425;-77
2022/03/17 05:37:00;;;;;;;104.88;36.28;;;;;;;1.98;100.00;96124.13;5064765;28;20123;-77
2022/03/17 05:39:25;;;;;;;105.93;37.95;;;;;;;1.98;100.00;96113.75;5065599;28;20028;-77
2022/03/17 05:41:51;;;;;;;95.10;36.53;;;;;;;2.10;100.00;96122.53;5062267;28;20036;-77
2022/03/17 05:44:16;;;;;;;97.95;37.60;;;;;;;2.12;100.00;96125.72;5067561;28;20047;-77
2022/03/17 05:46:42;;;;;;;96.40;39.15;;;;;;;2.00;100.00;96122.13;5062491;28;20041;-76
2022/03/17 05:49:07;;;;;;;100.63;36.92;;;;;;;1.89;100.00;96132.09;5061007;28;20448;-77
2022/03/17 05:51:33;;;;;;;94.65;36.80;;;;;;;1.99;100.00;96136.13;5053817;28;20037;-77
2022/03/17 05:53:59;;;;;;;106.43;37.35;;;;;;;1.91;100.00;96137.09;5050189;28;20041;-77
2022/03/17 05:56:24;;;;;;;104.35;37.33;;;;;;;1.94;100.00;96138.50;5058704;28;20075;-77
2022/03/17 05:58:49;;;;;;;97.28;36.90;;;;;;;2.09;100.00;96141.69;5050351;28;20064;-77
2022/03/17 06:01:15;;;;;;;104.32;38.22;;;;;;;2.05;100.00;96151.69;5063250;28;20174;-77
2022/03/17 06:03:41;;;;;;;92.60;36.63;;;;;;;2.06;100.00;96160.28;5060743;28;20041;-77
2022/03/17 06:06:06;;;;;;;99.57;37.58;;;;;;;2.15;100.00;96151.28;5059759;28;20041;-77
2022/03/17 06:08:32;;;;;;;102.70;37.92;;;;;;;2.15;100.00;96158.28;5064677;28;20569;-77
2022/03/17 06:10:57;;;;;;;98.18;38.55;;;;;;;2.09;100.00;96162.47;5050209;28;20044;-77
2022/03/17 06:13:23;;;;;;;105.53;37.85;;;;;;;2.04;100.00;96164.84;5053793;28;20490;-77
2022/03/17 06:15:48;;;;;;;99.03;35.35;;;;;;;2.17;100.00;96154.50;5056253;28;20063;-77
2022/03/17 06:18:14;;;;;;;103.65;38.58;;;;;;;2.14;100.00;96165.28;5066802;28;20033;-77
2022/03/17 06:20:39;;;;;;;105.22;37.78;;;;;;;2.11;100.00;96165.66;5051703;28;20045;-77
2022/03/17 06:23:07;;;;;;;117.82;38.28;;;;;;;2.19;100.00;96173.25;5049652;28;20045;-77
2022/03/17 06:25:35;;;;;;;106.53;38.50;;;;;;;2.27;100.00;96180.06;5054909;28;20049;-77
2022/03/17 06:28:00;;;;;;;109.68;37.97;;;;;;;2.33;100.00;96178.44;5057311;28;20525;-77
2022/03/17 06:30:36;;;;;;;103.50;38.00;;;;;;;2.44;100.00;96175.25;5063351;28;20121;-77
2022/03/17 06:33:04;;;;;;;96.93;36.88;;;;;;;2.48;100.00;96178.25;5062263;28;20093;-77
2022/03/17 06:35:30;;;;;;;100.35;37.42;;;;;;;2.55;100.00;96176.44;5052991;28;20545;-77
2022/03/17 06:37:59;;;;;;;103.47;38.67;;;;;;;2.49;100.00;96178.06;5058461;28;20060;-77
2022/03/17 06:40:27;;;;;;;109.57;37.67;;;;;;;2.38;100.00;96181.25;5052709;28;20095;-77
2022/03/17 06:42:53;;;;;;;111.53;37.63;;;;;;;2.45;100.00;96179.44;5050293;28;20036;-77
2022/03/17 06:45:20;;;;;;;95.78;37.25;;;;;;;2.72;100.00;96176.81;5048544;28;20052;-77
2022/03/17 06:47:45;;;;;;;96.50;37.08;;;;;;;2.82;99.63;96177.19;5051765;28;20045;-77
2022/03/17 06:50:13;;;;;;;106.22;38.53;;;;;;;2.82;100.00;96179.81;5055851;28;20064;-77
2022/03/17 06:52:39;;;;;;;94.80;36.47;;;;;;;3.02;97.84;96191.97;5056580;28;20044;-76
2022/03/17 06:55:05;;;;;;;95.00;37.42;;;;;;;3.06;98.92;96187.94;5056129;28;20545;-77
2022/03/17 06:57:31;;;;;;;96.60;38.22;;;;;;;3.15;99.28;96191.91;5063257;28;20033;-77
2022/03/17 06:59:57;;;;;;;94.93;38.03;;;;;;;3.25;97.36;96191.50;5054388;28;20044;-77
2022/03/17 07:02:22;;;;;;;102.80;37.80;;;;;;;3.00;97.68;96193.94;5048774;28;20048;-77
2022/03/17 07:04:48;;;;;;;102.55;38.97;;;;;;;2.94;100.00;96191.19;5056721;28;20044;-77
2022/03/17 07:07:14;;;;;;;99.82;38.65;;;;;;;2.91;99.34;96190.78;5049161;28;20512;-77
2022/03/17 07:09:41;;;;;;;100.95;39.05;;;;;;;2.86;98.13;96188.78;5049049;28;20599;-77
2022/03/17 07:12:07;;;;;;;99.07;37.85;;;;;;;3.14;98.88;96192.91;5058020;28;20201;-77
2022/03/17 07:14:33;;;;;;;112.45;39.40;;;;;;;3.09;98.68;96198.72;5065283;28;20049;-77
2022/03/17 07:16:58;;;;;;;96.85;37.47;;;;;;;3.35;96.83;96211.84;5054647;28;20041;-77
2022/03/17 07:19:24;;;;;;;97.47;38.42;;;;;;;3.59;94.96;96205.13;5056633;28;20075;-77
2022/03/17 07:21:51;;;;;;;118.75;39.50;;;;;;;3.40;96.21;96212.03;5049673;28;20037;-76
2022/03/17 07:24:17;;;;;;;98.68;38.13;;;;;;;3.23;95.80;96215.09;5068426;28;20068;-77
2022/03/17 07:26:44;;;;;;;94.65;37.83;;;;;;;3.19;96.70;96224.31;5051058;28;20095;-77
2022/03/17 07:29:10;;;;;;;96.30;38.42;;;;;;;3.34;96.14;96225.88;5049321;28;20041;-76
2022/03/17 07:31:36;;;;;;;106.90;38.78;;;;;;;3.40;96.71;96222.44;5051131;28;20090;-76
2022/03/17 07:34:01;;;;;;;104.95;39.58;;;;;;;3.54;96.82;96221.38;5047792;28;20072;-77
2022/03/17 07:36:28;;;;;;;108.38;39.47;;;;;;;3.35;94.57;96222.25;5057440;28;20052;-76
2022/03/17 07:38:55;;;;;;;99.95;38.88;;;;;;;3.48;97.10;96214.41;5067871;28;20520;-76
2022/03/17 07:41:21;;;;;;;98.13;38.45;;;;;;;3.86;95.49;96229.22;5048347;28;20694;-76
2022/03/17 07:43:47;;;;;;;92.30;35.90;;;;;;;4.02;92.79;96221.94;5051343;28;20040;-76
2022/03/17 07:46:13;;;;;;;91.55;36.97;;;;;;;3.79;94.03;96225.88;5055012;28;20103;-76
2022/03/17 07:48:41;;;;;;;99.80;38.58;;;;;;;3.85;94.67;96227.66;5051858;28;20036;-76
2022/03/17 07:51:08;;;;;;;98.25;36.65;;;;;;;3.73;95.99;96231.91;5047983;28;20360;-77
2022/03/17 07:53:34;;;;;;;100.53;37.33;;;;;;;3.78;95.31;96232.88;5055287;28;20048;-76
2022/03/17 07:56:01;;;;;;;95.43;36.90;;;;;;;4.08;93.91;96226.31;5055824;28;20066;-76
2022/03/17 07:58:27;;;;;;;89.22;36.60;;;;;;;4.27;91.68;96238.41;5059076;28;20090;-76
2022/03/17 08:00:55;;;;;;;91.65;37.60;;;;;;;4.02;94.79;96238.34;5053754;28;20048;-76
2022/03/17 08:03:21;;;;;;;123.10;39.70;;;;;;;3.90;95.93;96246.03;5049937;28;20049;-77
2022/03/17 08:05:48;;;;;;;93.47;36.28;;;;;;;3.92;95.43;96241.44;5051311;28;20044;-72
2022/03/17 08:08:17;;;;;;;90.55;36.90;;;;;;;3.94;95.62;96254.25;5059433;28;20052;-72
2022/03/17 08:10:43;;;;;;;85.68;35.92;;;;;;;4.06;95.67;96251.78;5058084;28;20051;-73
2022/03/17 08:13:09;;;;;;;87.72;36.58;;;;;;;4.22;94.74;96248.66;5060233;28;20564;-73
2022/03/17 08:15:36;;;;;;;82.80;32.50;;;;;;;4.47;95.31;96260.94;5053929;28;20040;-74
2022/03/17 08:18:03;;;;;;;83.82;34.72;;;;;;;4.49;93.85;96264.13;5060302;28;20041;-75
2022/03/17 08:20:29;;;;;;;82.70;35.38;;;;;;;4.45;92.68;96262.94;5052679;28;20071;-74
2022/03/17 08:22:56;;;;;;;110.57;36.95;;;;;;;4.59;93.96;96259.22;5052995;28;20150;-74
2022/03/17 08:25:21;;;;;;;80.68;34.15;;;;;;;4.50;92.61;96260.50;5054675;28;20053;-75
2022/03/17 08:27:50;;;;;;;88.72;35.47;;;;;;;4.68;92.24;96263.19;5062882;28;20051;-74
2022/03/17 08:30:16;;;;;;;76.95;34.00;;;;;;;4.64;92.80;96256.78;5068191;28;20041;-74
2022/03/17 08:32:42;;;;;;;81.65;33.22;;;;;;;4.84;93.14;96266.25;5070275;28;20514;-74
2022/03/17 08:35:09;;;;;;;80.22;34.08;;;;;;;4.84;91.70;96268.84;5062411;28;20040;-73
2022/03/17 08:37:39;;;;;;;82.25;33.38;;;;;;;4.89;92.48;96274.25;5060151;28;20052;-73
2022/03/17 08:40:05;;;;;;;82.15;33.92;;;;;;;4.95;92.76;96278.59;5059887;28;20040;-72
2022/03/17 08:42:31;;;;;;;79.40;33.17;;;;;;;5.29;90.92;96273.88;5070657;28;20048;-73
2022/03/17 08:44:57;;;;;;;76.13;31.70;;;;;;;5.11;91.23;96271.22;5062751;28;20049;-73
2022/03/17 08:50:08;;;;;;;74.18;31.48;;;;;;;5.23;90.96;96279.97;5053795;28;20068;-75
2022/03/17 08:52:33;;;;;;;72.97;31.60;;;;;;;4.98;92.79;96287.81;5065203;28;20036;-75
2022/03/17 08:54:59;;;;;;;81.25;31.27;;;;;;;4.83;92.64;96301.19;5063294;28;20103;-75
2022/03/17 08:57:25;;;;;;;77.50;31.33;;;;;;;5.14;93.84;96291.66;5072129;28;20434;-78
2022/03/17 08:59:53;;;;;;;77.05;28.95;;;;;;;5.45;93.11;96292.59;5061469;28;20080;-74
2022/03/17 09:02:18;;;;;;;71.75;29.30;;;;;;;5.39;94.01;96294.25;5056148;28;20032;-75
2022/03/17 09:04:44;;;;;;;77.20;30.73;;;;;;;5.36;93.66;96295.47;5051767;28;20044;-76
2022/03/17 09:07:11;;;;;;;73.88;31.48;;;;;;;5.54;92.58;96296.50;5062210;28;20046;-74
2022/03/17 09:09:38;;;;;;;66.88;28.67;;;;;;;5.45;92.90;96292.59;5070414;28;20450;-74
2022/03/17 09:12:06;;;;;;;72.63;30.25;;;;;;;5.49;93.36;96298.97;5066566;28;20552;-74
2022/03/17 09:14:37;;;;;;;73.22;30.33;;;;;;;5.59;93.16;96288.00;5071667;28;20119;-74
2022/03/17 09:17:04;;;;;;;69.43;29.50;;;;;;;5.89;89.86;96308.97;5065884;28;20063;-76
2022/03/17 09:19:29;;;;;;;73.72;30.45;;;;;;;5.70;91.25;96301.16;5071665;28;20101;-75
2022/03/17 09:21:56;;;;;;;77.82;30.15;;;;;;;5.78;91.91;96301.88;5057581;28;20044;-76
2022/03/17 09:24:22;;;;;;;67.72;28.70;;;;;;;5.71;93.03;96307.94;5051416;28;20045;-78
2022/03/17 09:26:47;;;;;;;73.25;30.05;;;;;;;5.72;92.73;96309.53;5051307;28;20094;-71
2022/03/17 09:29:16;;;;;;;69.13;28.25;;;;;;;5.56;93.55;96310.16;5052430;28;20045;-77
2022/03/17 09:31:42;;;;;;;71.22;30.25;;;;;;;5.60;91.98;96308.66;5051809;28;20044;-77
2022/03/17 09:34:09;;;;;;;72.22;29.13;;;;;;;5.76;92.10;96309.09;5062681;28;20075;-77
2022/03/17 09:36:35;;;;;;;84.53;31.50;;;;;;;5.71;92.68;96304.53;5065078;28;20041;-75
2022/03/17 09:41:45;;;;;;;80.32;30.48;;;;;;;5.95;91.57;96302.84;5056013;28;20453;-76
2022/03/17 09:44:10;;;;;;;74.10;30.17;;;;;;;5.79;93.37;96308.66;5051885;28;20037;-76
2022/03/17 09:46:39;;;;;;;75.72;29.75;;;;;;;6.37;90.35;96305.53;5050854;28;20803;-75
2022/03/17 09:49:06;;;;;;;71.57;29.40;;;;;;;6.62;87.44;96307.19;5051240;28;20044;-76
2022/03/17 09:51:34;;;;;;;71.03;30.60;;;;;;;6.62;87.54;96312.44;5053424;28;20044;-77
2022/03/17 09:54:00;;;;;;;69.95;30.63;;;;;;;6.27;87.54;96305.28;5054868;28;20044;-76
2022/03/17 09:56:27;;;;;;;69.25;29.30;;;;;;;6.60;87.08;96319.72;5063539;28;20750;-77
2022/03/17 09:58:54;;;;;;;71.93;29.40;;;;;;;6.81;87.09;96321.03;5057821;28;20475;-77
2022/03/17 10:01:21;;;;;;;69.70;29.88;;;;;;;6.92;84.34;96327.28;5063324;28;20060;-73
2022/03/17 10:03:48;;;;;;;69.60;30.40;;;;;;;6.70;86.42;96325.19;5062599;28;20040;-75
2022/03/17 10:06:15;;;;;;;68.75;29.20;;;;;;;7.00;85.66;96329.56;5069120;28;20413;-75
2022/03/17 10:08:42;;;;;;;71.63;29.98;;;;;;;7.07;84.73;96335.50;5066205;28;20044;-75
2022/03/17 10:11:07;;;;;;;69.28;28.38;;;;;;;7.15;85.46;96330.94;5069031;28;20044;-74
2022/03/17 10:13:43;;;;;;;71.75;29.00;;;;;;;7.15;85.22;96330.94;5051177;28;20048;-73
2022/03/17 10:16:12;;;;;;;68.65;28.92;;;;;;;7.03;85.57;96342.19;5058679;28;20414;-73
2022/03/17 10:18:39;;;;;;;74.30;30.23;;;;;;;6.79;87.63;96340.56;5061946;28;20040;-74
2022/03/17 10:21:06;;;;;;;77.78;30.52;;;;;;;6.76;88.76;96339.19;5056649;28;20562;-77
2022/03/17 10:23:33;;;;;;;104.50;38.78;;;;;;;7.11;88.58;96341.88;5058340;28;20044;-77
2022/03/17 10:25:59;;;;;;;98.35;37.30;;;;;;;7.27;86.86;96326.53;5055518;28;20036;-74
2022/03/17 10:28:27;;;;;;;68.90;30.00;;;;;;;7.27;86.27;96334.38;5052006;28;20048;-73
2022/03/17 10:31:04;;;;;;;67.43;28.73;;;;;;;7.67;85.74;96323.19;5064752;28;20047;-76
2022/03/17 10:33:32;;;;;;;58.33;26.05;;;;;;;7.62;84.34;96328.31;5067054;28;20044;-76
2022/03/17 10:36:13;;;;;;;62.15;27.40;;;;;;;7.79;85.36;96336.28;5060619;28;20119;-74
2022/03/17 10:38:43;;;;;;;65.57;26.92;;;;;;;7.32;86.22;96326.63;5059512;28;20043;-73
2022/03/17 10:41:11;;;;;;;64.18;26.45;;;;;;;7.85;83.71;96329.31;5064156;28;20040;-73
2022/03/17 10:43:43;;;;;;;73.25;26.77;;;;;;;8.00;82.46;96334.84;5066183;28;20040;-73
2022/03/17 10:46:13;;;;;;;58.47;25.85;;;;;;;7.98;82.99;96329.03;5059825;28;20144;-73
2022/03/17 10:48:55;;;;;;;65.25;27.95;;;;;;;7.79;83.84;96331.81;5050800;28;20044;-73
2022/03/17 10:51:38;;;;;;;61.80;26.83;;;;;;;7.93;82.96;96331.53;5061097;28;20044;-73
2022/03/17 10:54:04;;;;;;;71.97;26.88;;;;;;;8.04;82.94;96332.56;5055583;28;20040;-73
2022/03/17 10:56:30;;;;;;;65.78;27.23;;;;;;;8.12;82.02;96334.81;5058009;28;20563;-72
2022/03/17 10:58:58;;;;;;;62.90;27.92;;;;;;;7.50;84.00;96338.00;5060353;28;20037;-73
2022/03/17 11:01:38;;;;;;;68.00;27.35;;;;;;;7.05;86.24;96353.25;5062214;28;20041;-73
2022/03/17 11:04:05;;;;;;;67.47;29.60;;;;;;;7.06;88.11;96349.59;5067015;28;20045;-73
2022/03/17 11:06:32;;;;;;;63.95;27.42;;;;;;;7.21;87.29;96350.97;5048769;28;20052;-73
2022/03/17 11:09:01;;;;;;;59.95;26.52;;;;;;;7.49;86.22;96349.53;5052657;28;20045;-73
2022/03/17 11:11:30;;;;;;;60.30;25.27;;;;;;;7.76;84.38;96348.00;5054047;28;20036;-73
2022/03/17 11:13:59;;;;;;;66.20;25.73;;;;;;;7.40;85.79;96343.84;5057428;28;20063;-73
2022/03/17 11:16:34;;;;;;;62.30;26.58;;;;;;;7.55;86.20;96353.84;5064209;28;20052;-74
2022/03/17 11:19:00;;;;;;;64.60;25.25;;;;;;;7.84;84.69;96352.09;5051594;28;20040;-75
2022/03/17 11:21:30;;;;;;;57.35;24.95;;;;;;;8.08;83.29;96349.41;5064578;28;20045;-73
2022/03/17 11:24:06;;;;;;;60.35;25.67;;;;;;;7.83;82.60;96347.06;5058491;28;20559;-72
2022/03/17 11:26:36;;;;;;;63.90;26.48;;;;;;;7.70;84.36;96343.69;5055046;28;20045;-75
2022/03/17 11:29:06;;;;;;;69.03;29.83;;;;;;;7.73;85.35;96343.22;5061082;28;20169;-73
2022/03/17 11:31:51;;;;;;;59.47;25.27;;;;;;;8.22;83.66;96344.72;5055512;28;20041;-73
2022/03/17 11:34:38;;;;;;;;;;;;;;;8.10;83.78;96337.69;5057568;28;20106;-73
2022/03/17 11:37:27;;;;;;;57.50;24.08;;;;;;;8.23;82.75;96347.09;5054562;28;20568;-72